createdAt,value
2024-02-27T00:00:20.407Z,95578.78
2024-02-27T00:02:48.475Z,95580.78
2024-02-27T00:05:16.713Z,95582.78
2024-02-27T00:07:45.141Z,95588.28
2024-02-27T00:10:15.285Z,95587.97
2024-02-27T00:12:43.444Z,95580.00
2024-02-27T00:15:13.249Z,95587.63
2024-02-27T00:17:41.333Z,95594.00
2024-02-27T00:20:11.366Z,95599.47
2024-02-27T00:22:39.674Z,95603.31
2024-02-27T00:25:08.898Z,95606.19
2024-02-27T00:27:37.010Z,95614.13
2024-02-27T00:30:06.595Z,95618.31
2024-02-27T00:32:35.996Z,95617.88
2024-02-27T00:35:04.400Z,95619.00
2024-02-27T00:37:32.478Z,95621.75
2024-02-27T00:40:00.769Z,95620.94
2024-02-27T00:42:30.156Z,95624.84
2024-02-27T00:44:58.573Z,95634.13
2024-02-27T00:47:26.707Z,95641.56
2024-02-27T00:49:56.100Z,95648.78
2024-02-27T00:52:25.045Z,95660.47
2024-02-27T00:54:53.070Z,95650.81
2024-02-27T00:57:21.185Z,95649.31
2024-02-27T00:59:49.223Z,95647.72
2024-02-27T01:02:17.286Z,95651.84
2024-02-27T01:04:45.295Z,95657.34
2024-02-27T01:07:14.864Z,95647.53
2024-02-27T01:09:42.966Z,95646.31
2024-02-27T01:12:11.071Z,95659.50
2024-02-27T01:14:39.112Z,95665.59
2024-02-27T01:17:07.624Z,95659.63
2024-02-27T01:19:35.720Z,95663.88
2024-02-27T01:22:03.942Z,95662.03
2024-02-27T01:24:34.424Z,95656.97
2024-02-27T01:27:02.823Z,95658.03
2024-02-27T01:29:30.878Z,95666.16
2024-02-27T01:31:59.229Z,95660.63
2024-02-27T01:34:27.462Z,95659.94
2024-02-27T01:36:55.598Z,95662.81
2024-02-27T01:39:24.119Z,95654.09
2024-02-27T01:41:53.483Z,95655.47
2024-02-27T01:44:21.491Z,95654.66
2024-02-27T01:46:50.238Z,95651.63
2024-02-27T01:49:19.041Z,95644.56
2024-02-27T01:51:49.590Z,95642.63
2024-02-27T01:54:21.369Z,95651.19
2024-02-27T01:56:50.918Z,95651.97
2024-02-27T01:59:23.369Z,95644.16
2024-02-27T02:01:52.835Z,95641.28
2024-02-27T02:04:21.168Z,95644.75
2024-02-27T02:06:49.616Z,95641.66
2024-02-27T02:09:17.690Z,95638.03
2024-02-27T02:11:48.252Z,95636.88
2024-02-27T02:14:16.475Z,95644.28
2024-02-27T02:16:46.077Z,95661.72
2024-02-27T02:19:14.523Z,95661.41
2024-02-27T02:21:44.720Z,95665.72
2024-02-27T02:24:13.241Z,95663.81
2024-02-27T02:26:43.256Z,95671.69
2024-02-27T02:29:17.789Z,95665.47
2024-02-27T02:31:45.869Z,95673.47
2024-02-27T02:34:13.960Z,95676.00
2024-02-27T02:36:45.078Z,95678.28
2024-02-27T02:39:13.307Z,95681.72
2024-02-27T02:41:41.452Z,95685.19
2024-02-27T02:44:09.602Z,95688.13
2024-02-27T02:46:39.778Z,95683.72
2024-02-27T02:49:07.950Z,95685.63
2024-02-27T02:51:36.373Z,95685.84
2024-02-27T02:54:05.847Z,95694.09
2024-02-27T02:56:33.991Z,95692.50
2024-02-27T02:59:02.043Z,95698.69
2024-02-27T03:01:30.162Z,95701.66
2024-02-27T03:03:59.554Z,95708.75
2024-02-27T03:06:27.784Z,95712.44
2024-02-27T03:08:55.884Z,95715.06
2024-02-27T03:11:25.331Z,95720.41
2024-02-27T03:13:53.447Z,95720.78
2024-02-27T03:16:21.483Z,95728.53
2024-02-27T03:18:49.601Z,95732.34
2024-02-27T03:21:17.684Z,95739.31
2024-02-27T03:23:45.783Z,95730.03
2024-02-27T03:26:17.731Z,95736.56
2024-02-27T03:28:47.100Z,95731.63
2024-02-27T03:31:16.994Z,95737.72
2024-02-27T03:33:45.243Z,95738.03
2024-02-27T03:36:14.243Z,95742.03
2024-02-27T03:38:44.021Z,95739.75
2024-02-27T03:41:14.553Z,95746.84
2024-02-27T03:43:43.623Z,95741.25
2024-02-27T03:46:13.267Z,95750.50
2024-02-27T03:48:41.700Z,95761.16
2024-02-27T03:51:10.085Z,95762.09
2024-02-27T03:53:38.177Z,95765.38
2024-02-27T03:56:07.310Z,95765.72
2024-02-27T03:58:37.230Z,95764.00
2024-02-27T04:01:05.851Z,95768.50
2024-02-27T04:03:35.337Z,95772.13
2024-02-27T04:06:03.558Z,95767.53
2024-02-27T04:08:31.725Z,95772.44
2024-02-27T04:10:59.860Z,95771.41
2024-02-27T04:13:28.126Z,95779.41
2024-02-27T04:15:56.135Z,95784.72
2024-02-27T04:18:24.594Z,95779.75
2024-02-27T04:20:54.272Z,95776.69
2024-02-27T04:23:22.356Z,95776.56
2024-02-27T04:25:50.443Z,95772.47
2024-02-27T04:28:18.488Z,95771.22
2024-02-27T04:30:46.661Z,95779.47
2024-02-27T04:33:15.030Z,95788.13
2024-02-27T04:35:43.182Z,95783.19
2024-02-27T04:38:12.985Z,95786.03
2024-02-27T04:40:42.582Z,95794.31
2024-02-27T04:43:09.638Z,95790.28
2024-02-27T04:45:37.676Z,95792.78
2024-02-27T04:48:07.975Z,95805.47
2024-02-27T04:50:36.223Z,95803.00
2024-02-27T04:53:04.735Z,95813.88
2024-02-27T04:55:34.133Z,95809.78
2024-02-27T04:58:02.508Z,95815.47
2024-02-27T05:00:30.635Z,95819.69
2024-02-27T05:02:58.782Z,95813.28
2024-02-27T05:05:26.839Z,95825.25
2024-02-27T05:07:54.869Z,95828.09
2024-02-27T05:10:22.932Z,95834.06
2024-02-27T05:12:52.321Z,95835.28
2024-02-27T05:15:20.356Z,95831.88
2024-02-27T05:17:48.511Z,95839.25
2024-02-27T05:20:16.975Z,95837.56
2024-02-27T05:22:45.134Z,95839.03
2024-02-27T05:25:13.316Z,95843.88
2024-02-27T05:27:41.392Z,95848.75
2024-02-27T05:30:12.506Z,95855.66
2024-02-27T05:32:40.640Z,95850.06
2024-02-27T05:35:09.678Z,95859.31
2024-02-27T05:37:37.816Z,95862.28
2024-02-27T05:40:11.682Z,95861.53
2024-02-27T05:42:40.013Z,95866.94
2024-02-27T05:45:10.923Z,95874.84
2024-02-27T05:47:39.026Z,95881.75
2024-02-27T05:50:08.648Z,95874.06
2024-02-27T05:52:36.713Z,95884.47
2024-02-27T05:55:05.421Z,95882.38
2024-02-27T05:57:33.529Z,95882.88
2024-02-27T06:00:01.655Z,95895.94
2024-02-27T06:02:31.072Z,95894.19
2024-02-27T06:04:59.561Z,95895.47
2024-02-27T06:07:27.660Z,95891.63
2024-02-27T06:09:56.396Z,95895.44
2024-02-27T06:12:24.486Z,95890.84
2024-02-27T06:14:52.736Z,95894.19
2024-02-27T06:17:20.906Z,95901.84
2024-02-27T06:19:56.425Z,95910.97
2024-02-27T06:22:25.005Z,95909.88
2024-02-27T06:24:53.498Z,95920.44
2024-02-27T06:27:21.602Z,95916.97
2024-02-27T06:29:50.278Z,95923.09
2024-02-27T06:32:18.761Z,95928.44
2024-02-27T06:34:48.958Z,95925.44
2024-02-27T06:37:19.978Z,95924.72
2024-02-27T06:39:48.542Z,95926.09
2024-02-27T06:42:16.714Z,95927.41
2024-02-27T06:44:45.112Z,95926.69
2024-02-27T06:47:13.181Z,95928.44
2024-02-27T06:49:41.397Z,95923.47
2024-02-27T06:52:09.888Z,95926.03
2024-02-27T06:54:39.338Z,95922.78
2024-02-27T06:57:07.477Z,95926.53
2024-02-27T06:59:35.569Z,95928.38
2024-02-27T07:02:03.623Z,95932.88
2024-02-27T07:04:31.767Z,95923.06
2024-02-27T07:07:00.151Z,95932.28
2024-02-27T07:09:29.565Z,95942.19
2024-02-27T07:12:00.315Z,95946.84
2024-02-27T07:14:29.066Z,95948.91
2024-02-27T07:16:57.358Z,95953.88
2024-02-27T07:19:25.517Z,95952.63
2024-02-27T07:21:54.072Z,95959.28
2024-02-27T07:24:22.593Z,95961.63
2024-02-27T07:26:50.660Z,95960.03
2024-02-27T07:29:20.573Z,95966.81
2024-02-27T07:31:48.718Z,95974.34
2024-02-27T07:34:18.377Z,95985.19
2024-02-27T07:36:46.594Z,95983.53
2024-02-27T07:39:16.445Z,95983.31
2024-02-27T07:41:44.549Z,95975.25
2024-02-27T07:44:12.651Z,95973.53
2024-02-27T07:46:42.069Z,95976.69
2024-02-27T07:49:10.872Z,95977.22
2024-02-27T07:51:39.144Z,95983.19
2024-02-27T07:54:07.379Z,95989.56
2024-02-27T07:56:35.509Z,95993.34
2024-02-27T07:59:03.597Z,95992.50
2024-02-27T08:01:31.994Z,95993.84
2024-02-27T08:04:01.589Z,95998.72
2024-02-27T08:06:29.912Z,96007.78
2024-02-27T08:08:58.133Z,96012.75
2024-02-27T08:11:27.403Z,96003.56
2024-02-27T08:13:55.706Z,96012.28
2024-02-27T08:16:23.842Z,96021.50
2024-02-27T08:18:51.998Z,96011.59
2024-02-27T08:21:21.546Z,96020.44
2024-02-27T08:23:50.013Z,96015.38
2024-02-27T08:26:18.082Z,96011.81
2024-02-27T08:28:46.189Z,96016.22
2024-02-27T08:31:15.338Z,96019.19
2024-02-27T08:33:43.831Z,96020.16
2024-02-27T08:36:12.038Z,96023.34
2024-02-27T08:38:44.885Z,96020.72
2024-02-27T08:41:13.022Z,96024.38
2024-02-27T08:43:44.081Z,96025.84
2024-02-27T08:46:18.660Z,96025.25
2024-02-27T08:48:47.180Z,96017.75
2024-02-27T08:51:15.518Z,96007.59
2024-02-27T08:53:44.949Z,96005.84
2024-02-27T08:56:12.981Z,96023.06
2024-02-27T08:58:41.029Z,96025.00
2024-02-27T09:01:09.134Z,96022.28
2024-02-27T09:03:37.295Z,96026.44
2024-02-27T09:06:06.583Z,96034.13
2024-02-27T09:08:34.841Z,96031.44
2024-02-27T09:11:04.353Z,96037.25
2024-02-27T09:13:32.419Z,96042.38
2024-02-27T09:16:00.490Z,96040.41
2024-02-27T09:18:28.809Z,96046.13
2024-02-27T09:20:56.865Z,96041.38
2024-02-27T09:23:25.116Z,96038.91
2024-02-27T09:25:53.155Z,96044.81
2024-02-27T09:28:22.546Z,96031.75
2024-02-27T09:33:43.331Z,96022.47
2024-02-27T09:36:11.807Z,96031.59
2024-02-27T09:38:39.843Z,96034.34
2024-02-27T09:41:09.156Z,96034.34
2024-02-27T09:43:45.186Z,96030.66
2024-02-27T09:46:14.784Z,96031.44
2024-02-27T09:48:45.044Z,96037.72
2024-02-27T09:51:14.798Z,96046.03
2024-02-27T09:53:45.239Z,96039.69
2024-02-27T09:56:16.278Z,96046.63
2024-02-27T09:58:46.562Z,96046.25
2024-02-27T10:01:15.388Z,96044.81
2024-02-27T10:03:46.936Z,96041.59
2024-02-27T10:06:18.590Z,96048.47
2024-02-27T10:08:52.704Z,96046.63
2024-02-27T10:11:21.098Z,96033.06
2024-02-27T10:13:50.601Z,96042.03
2024-02-27T10:16:23.705Z,96048.03
2024-02-27T10:18:52.175Z,96051.19
2024-02-27T10:21:20.897Z,96058.59
2024-02-27T10:23:49.151Z,96063.31
2024-02-27T10:26:18.236Z,96065.38
2024-02-27T10:28:49.578Z,96073.63
2024-02-27T10:31:19.891Z,96069.91
2024-02-27T10:33:48.470Z,96065.63
2024-02-27T10:36:16.707Z,96065.50
2024-02-27T10:38:46.109Z,96077.78
2024-02-27T10:41:14.152Z,96078.00
2024-02-27T10:43:42.371Z,96075.28
2024-02-27T10:46:11.074Z,96067.41
2024-02-27T10:48:45.213Z,96078.75
2024-02-27T10:51:14.567Z,96066.06
2024-02-27T10:53:44.133Z,96064.16
2024-02-27T10:56:12.183Z,96062.44
2024-02-27T10:58:41.196Z,96066.06
2024-02-27T11:01:10.694Z,96067.91
2024-02-27T11:03:42.574Z,96070.88
2024-02-27T11:06:16.488Z,96071.50
2024-02-27T11:08:47.736Z,96063.13
2024-02-27T11:11:16.757Z,96068.38
2024-02-27T11:13:48.930Z,96061.31
2024-02-27T11:16:22.272Z,96059.03
2024-02-27T11:18:57.670Z,96057.78
2024-02-27T11:21:26.563Z,96067.50
2024-02-27T11:23:55.442Z,96068.28
2024-02-27T11:26:23.719Z,96066.47
2024-02-27T11:28:54.660Z,96061.34
2024-02-27T11:31:23.512Z,96074.72
2024-02-27T11:33:54.563Z,96072.47
2024-02-27T11:36:23.813Z,96068.72
2024-02-27T11:38:52.797Z,96071.00
2024-02-27T11:41:22.866Z,96078.66
2024-02-27T11:43:55.914Z,96081.53
2024-02-27T11:46:37.211Z,96078.66
2024-02-27T11:49:06.953Z,96078.56
2024-02-27T11:51:38.914Z,96078.13
2024-02-27T11:54:09.940Z,96083.31
2024-02-27T11:56:45.824Z,96075.13
2024-02-27T11:59:16.102Z,96078.78
2024-02-27T12:01:44.218Z,96083.84
2024-02-27T12:04:14.272Z,96082.16
2024-02-27T12:06:51.703Z,96075.28
2024-02-27T12:09:26.291Z,96078.13
2024-02-27T12:11:55.219Z,96080.56
2024-02-27T12:14:23.339Z,96076.38
2024-02-27T12:16:51.355Z,96079.84
2024-02-27T12:19:21.855Z,96087.50
2024-02-27T12:21:50.411Z,96083.50
2024-02-27T12:24:21.582Z,96083.13
2024-02-27T12:26:50.787Z,96091.16
2024-02-27T12:29:19.297Z,96091.97
2024-02-27T12:31:47.805Z,96093.13
2024-02-27T12:34:15.936Z,96096.06
2024-02-27T12:36:45.373Z,96084.19
2024-02-27T12:39:14.006Z,96087.41
2024-02-27T12:41:42.354Z,96084.66
2024-02-27T12:44:11.318Z,96083.03
2024-02-27T12:46:39.891Z,96074.03
2024-02-27T12:49:10.105Z,96072.06
2024-02-27T12:51:38.880Z,96071.03
2024-02-27T12:54:09.565Z,96067.94
2024-02-27T12:56:38.604Z,96072.72
2024-02-27T12:59:10.669Z,96063.72
2024-02-27T13:01:42.634Z,96051.81
2024-02-27T13:04:11.245Z,96048.47
2024-02-27T13:06:39.529Z,96041.28
2024-02-27T13:09:09.022Z,96040.00
2024-02-27T13:11:37.179Z,96041.97
2024-02-27T13:14:05.332Z,96044.97
2024-02-27T13:16:33.369Z,96048.97
2024-02-27T13:19:01.877Z,96047.50
2024-02-27T13:21:30.767Z,96049.53
2024-02-27T13:24:03.700Z,96048.16
2024-02-27T13:26:33.181Z,96037.28
2024-02-27T13:29:01.946Z,96035.22
2024-02-27T13:31:30.435Z,96036.97
2024-02-27T13:33:58.590Z,96035.13
2024-02-27T13:36:26.702Z,96040.63
2024-02-27T13:38:54.790Z,96036.97
2024-02-27T13:41:23.713Z,96038.56
2024-02-27T13:43:53.116Z,96034.22
2024-02-27T13:46:21.161Z,96035.91
2024-02-27T13:48:49.241Z,96029.63
2024-02-27T13:51:18.105Z,96031.59
2024-02-27T13:53:46.229Z,96031.81
2024-02-27T13:56:14.355Z,96024.38
2024-02-27T13:58:42.446Z,96020.16
2024-02-27T14:01:12.018Z,96020.94
2024-02-27T14:03:40.427Z,96022.31
2024-02-27T14:06:09.082Z,96021.50
2024-02-27T14:08:37.207Z,96019.66
2024-02-27T14:11:05.747Z,96017.38
2024-02-27T14:13:36.359Z,96024.72
2024-02-27T14:16:04.865Z,96021.41
2024-02-27T14:18:34.568Z,96016.00
2024-02-27T14:21:02.831Z,96019.06
2024-02-27T14:23:30.878Z,96023.56
2024-02-27T14:25:58.947Z,96029.53
2024-02-27T14:28:27.531Z,96033.88
2024-02-27T14:30:55.717Z,96038.94
2024-02-27T14:33:24.158Z,96043.63
2024-02-27T14:35:55.081Z,96044.53
2024-02-27T14:38:23.171Z,96049.91
2024-02-27T14:40:52.008Z,96056.81
2024-02-27T14:43:20.073Z,96068.63
2024-02-27T14:45:48.280Z,96071.25
2024-02-27T14:48:16.597Z,96081.19
2024-02-27T14:50:44.892Z,96088.09
2024-02-27T14:53:14.842Z,96083.28
2024-02-27T14:55:43.785Z,96094.97
2024-02-27T14:58:14.696Z,96094.16
2024-02-27T15:00:43.007Z,96103.53
2024-02-27T15:03:11.291Z,96101.72
2024-02-27T15:05:39.521Z,96103.31
2024-02-27T15:08:08.588Z,96112.34
2024-02-27T15:10:37.992Z,96113.28
2024-02-27T15:13:07.684Z,96124.84
2024-02-27T15:15:35.811Z,96123.84
2024-02-27T15:18:04.818Z,96128.16
2024-02-27T15:20:32.972Z,96127.47
2024-02-27T15:23:01.040Z,96126.31
2024-02-27T15:25:29.079Z,96130.81
2024-02-27T15:27:58.457Z,96139.53
2024-02-27T15:30:34.732Z,96146.06
2024-02-27T15:33:02.912Z,96146.63
2024-02-27T15:35:31.038Z,96147.88
2024-02-27T15:37:59.375Z,96149.72
2024-02-27T15:40:27.643Z,96149.16
2024-02-27T15:42:55.862Z,96152.56
2024-02-27T15:45:23.967Z,96154.41
2024-02-27T15:47:53.872Z,96152.81
2024-02-27T15:50:22.091Z,96145.91
2024-02-27T15:52:50.146Z,96145.69
2024-02-27T15:55:20.500Z,96149.16
2024-02-27T15:57:49.322Z,96156.34
2024-02-27T16:00:23.947Z,96146.97
2024-02-27T16:03:01.282Z,96156.13
2024-02-27T16:05:31.113Z,96159.38
2024-02-27T16:07:59.381Z,96161.06
2024-02-27T16:10:27.648Z,96162.31
2024-02-27T16:12:54.830Z,96160.84
2024-02-27T16:15:22.980Z,96161.63
2024-02-27T16:17:51.063Z,96161.06
2024-02-27T16:20:20.508Z,96163.78
2024-02-27T16:22:48.563Z,96154.19
2024-02-27T16:25:17.213Z,96158.09
2024-02-27T16:27:45.347Z,96156.00
2024-02-27T16:30:16.197Z,96161.28
2024-02-27T16:32:46.439Z,96170.09
2024-02-27T16:35:14.842Z,96171.78
2024-02-27T16:37:44.186Z,96176.25
2024-02-27T16:40:13.749Z,96176.25
2024-02-27T16:42:42.465Z,96175.91
2024-02-27T16:45:11.062Z,96175.09
2024-02-27T16:47:39.836Z,96173.47
2024-02-27T16:50:32.909Z,96172.53
2024-02-27T16:53:04.355Z,96169.38
2024-02-27T16:55:32.781Z,96171.06
2024-02-27T16:58:01.815Z,96181.59
2024-02-27T17:00:29.904Z,96180.66
2024-02-27T17:02:57.962Z,96180.88
2024-02-27T17:05:28.023Z,96186.38
2024-02-27T17:07:56.058Z,96184.97
2024-02-27T17:10:26.547Z,96185.19
2024-02-27T17:12:54.840Z,96180.97
2024-02-27T17:15:24.185Z,96179.38
2024-02-27T17:17:53.150Z,96188.72
2024-02-27T17:20:21.631Z,96188.72
2024-02-27T17:22:49.730Z,96205.53
2024-02-27T17:25:17.948Z,96196.47
2024-02-27T17:27:47.375Z,96208.63
2024-02-27T17:30:15.991Z,96205.41
2024-02-27T17:33:09.386Z,96203.81
2024-02-27T17:35:37.687Z,96203.44
2024-02-27T17:38:10.430Z,96214.75
2024-02-27T17:40:38.471Z,96220.47
2024-02-27T17:43:07.852Z,96217.19
2024-02-27T17:45:42.504Z,96224.50
2024-02-27T17:48:14.349Z,96232.16
2024-02-27T17:50:43.019Z,96234.78
2024-02-27T17:53:11.384Z,96237.50
2024-02-27T17:55:39.434Z,96232.66
2024-02-27T17:58:08.992Z,96244.03
2024-02-27T18:00:38.151Z,96247.69
2024-02-27T18:03:07.089Z,96246.72
2024-02-27T18:05:35.282Z,96251.03
2024-02-27T18:08:03.644Z,96254.31
2024-02-27T18:10:31.726Z,96249.28
2024-02-27T18:12:59.769Z,96249.50
2024-02-27T18:15:29.942Z,96243.78
2024-02-27T18:17:58.055Z,96254.38
2024-02-27T18:20:27.690Z,96262.69
2024-02-27T18:22:55.769Z,96264.97
2024-02-27T18:25:24.127Z,96267.44
2024-02-27T18:27:52.543Z,96263.44
2024-02-27T18:30:20.891Z,96268.09
2024-02-27T18:32:50.353Z,96269.09
2024-02-27T18:35:18.504Z,96269.09
2024-02-27T18:37:46.598Z,96265.09
2024-02-27T18:40:14.754Z,96278.03
2024-02-27T18:42:42.818Z,96280.25
2024-02-27T18:45:11.518Z,96273.75
2024-02-27T18:47:39.665Z,96289.34
2024-02-27T18:50:10.106Z,96289.34
2024-02-27T18:52:38.223Z,96285.47
2024-02-27T18:55:06.552Z,96286.72
2024-02-27T18:57:34.741Z,96293.34
2024-02-27T19:00:03.878Z,96299.44
2024-02-27T19:02:31.931Z,96306.09
2024-02-27T19:05:00.004Z,96304.50
2024-02-27T19:07:30.288Z,96307.94
2024-02-27T19:09:58.957Z,96310.31
2024-02-27T19:12:27.238Z,96309.53
2024-02-27T19:14:55.393Z,96319.84
2024-02-27T19:17:23.549Z,96314.13
2024-02-27T19:19:51.851Z,96306.84
2024-02-27T19:22:21.953Z,96320.16
2024-02-27T19:24:51.381Z,96318.56
2024-02-27T19:27:19.462Z,96323.59
2024-02-27T19:29:47.511Z,96327.63
2024-02-27T19:32:15.618Z,96331.66
2024-02-27T19:34:43.640Z,96332.91
2024-02-27T19:37:11.689Z,96330.88
2024-02-27T19:39:40.929Z,96331.88
2024-02-27T19:42:10.471Z,96332.47
2024-02-27T19:44:38.618Z,96333.09
2024-02-27T19:47:09.549Z,96334.94
2024-02-27T19:49:39.599Z,96333.31
2024-02-27T19:52:08.500Z,96342.66
2024-02-27T19:54:36.761Z,96343.47
2024-02-27T19:57:05.698Z,96340.78
2024-02-27T19:59:36.284Z,96347.88
2024-02-27T20:02:04.880Z,96337.94
2024-02-27T20:04:32.989Z,96349.94
2024-02-27T20:07:03.160Z,96350.75
2024-02-27T20:09:31.294Z,96354.78
2024-02-27T20:11:59.586Z,96348.75
2024-02-27T20:14:27.620Z,96362.13
2024-02-27T20:16:57.044Z,96367.78
2024-02-27T20:19:50.978Z,96365.31
2024-02-27T20:22:19.201Z,96373.00
2024-02-27T20:24:47.730Z,96368.13
2024-02-27T20:27:16.208Z,96376.03
2024-02-27T20:29:55.845Z,96374.19
2024-02-27T20:32:28.777Z,96371.19
2024-02-27T20:34:57.026Z,96372.38
2024-02-27T20:37:25.422Z,96370.59
2024-02-27T20:39:53.535Z,96379.91
2024-02-27T20:42:21.579Z,96385.75
2024-02-27T20:44:50.096Z,96389.63
2024-02-27T20:47:18.264Z,96386.16
2024-02-27T20:49:47.626Z,96387.78
2024-02-27T20:52:15.704Z,96398.31
2024-02-27T20:54:44.471Z,96396.06
2024-02-27T20:57:12.627Z,96396.47
2024-02-27T20:59:40.855Z,96396.47
2024-02-27T21:02:09.332Z,96405.41
2024-02-27T21:04:37.366Z,96399.94
2024-02-27T21:07:07.290Z,96406.00
2024-02-27T21:09:41.131Z,96407.41
2024-02-27T21:12:09.717Z,96421.59
2024-02-27T21:14:38.005Z,96412.28
2024-02-27T21:17:06.224Z,96417.94
2024-02-27T21:19:34.273Z,96423.66
2024-02-27T21:22:02.377Z,96413.72
2024-02-27T21:24:31.772Z,96421.19
2024-02-27T21:26:59.845Z,96426.28
2024-02-27T21:29:28.045Z,96422.00
2024-02-27T21:31:56.307Z,96439.25
2024-02-27T21:34:24.353Z,96434.19
2024-02-27T21:36:54.092Z,96435.41
2024-02-27T21:39:22.321Z,96433.22
2024-02-27T21:41:51.737Z,96441.47
2024-02-27T21:44:19.797Z,96444.72
2024-02-27T21:46:47.845Z,96443.59
2024-02-27T21:49:16.366Z,96432.31
2024-02-27T21:51:49.425Z,96437.88
2024-02-27T21:54:24.798Z,96439.97
2024-02-27T21:56:54.207Z,96442.47
2024-02-27T21:59:22.268Z,96446.88
2024-02-27T22:01:50.613Z,96445.44
2024-02-27T22:04:19.831Z,96443.75
2024-02-27T22:06:47.921Z,96446.13
2024-02-27T22:09:16.072Z,96449.31
2024-02-27T22:11:44.157Z,96448.31
2024-02-27T22:14:13.621Z,96444.25
2024-02-27T22:16:41.794Z,96448.53
2024-02-27T22:19:10.576Z,96446.69
2024-02-27T22:21:39.335Z,96448.31
2024-02-27T22:24:08.181Z,96459.22
2024-02-27T22:26:36.980Z,96459.78
2024-02-27T22:29:05.099Z,96460.03
2024-02-27T22:31:34.775Z,96460.69
2024-02-27T22:34:03.104Z,96472.25
2024-02-27T22:36:31.329Z,96476.34
2024-02-27T22:38:59.398Z,96476.34
2024-02-27T22:41:27.497Z,96482.63
2024-02-27T22:43:56.678Z,96485.25
2024-02-27T22:46:26.453Z,96492.16
2024-02-27T22:48:55.968Z,96483.28
2024-02-27T22:51:24.143Z,96491.63
2024-02-27T22:53:52.495Z,96486.34
2024-02-27T22:56:20.696Z,96490.59
2024-02-27T22:58:49.609Z,96490.16
2024-02-27T23:01:17.720Z,96495.06
2024-02-27T23:03:46.386Z,96491.97
2024-02-27T23:06:40.528Z,96498.91
2024-02-27T23:09:08.687Z,96493.66
2024-02-27T23:11:36.869Z,96495.88
2024-02-27T23:14:08.065Z,96500.16
2024-02-27T23:16:37.681Z,96499.16
2024-02-27T23:19:07.628Z,96502.81
2024-02-27T23:21:37.495Z,96503.47
2024-02-27T23:24:06.224Z,96507.34
2024-02-27T23:26:34.265Z,96502.06
2024-02-27T23:29:02.352Z,96505.72
2024-02-27T23:31:30.800Z,96503.28
2024-02-27T23:33:59.398Z,96500.91
2024-02-27T23:36:27.482Z,96504.97
2024-02-27T23:38:57.303Z,96504.38
2024-02-27T23:41:25.320Z,96498.94
2024-02-27T23:43:53.361Z,96516.78
2024-02-27T23:46:22.160Z,96503.41
2024-02-27T23:48:51.055Z,96509.69
2024-02-27T23:51:19.215Z,96515.16
2024-02-27T23:53:49.428Z,96504.28
2024-02-27T23:56:18.814Z,96510.53
2024-02-27T23:58:47.069Z,96519.25
